createdAt,value
2023-02-11T00:00:21.753Z,12.43
2023-02-11T00:02:54.846Z,10.65
2023-02-11T00:05:27.319Z,12.07
2023-02-11T00:07:59.850Z,8.77
2023-02-11T00:10:32.197Z,8.85
2023-02-11T00:13:04.659Z,10.30
2023-02-11T00:15:37.134Z,4.53
2023-02-11T00:18:10.226Z,7.32
2023-02-11T00:20:42.953Z,6.70
2023-02-11T00:23:15.742Z,6.88
2023-02-11T00:25:48.143Z,9.70
2023-02-11T00:28:20.543Z,5.40
2023-02-11T00:30:55.245Z,7.13
2023-02-11T00:33:28.570Z,12.05
2023-02-11T00:36:04.219Z,10.65
2023-02-11T00:38:36.574Z,7.38
2023-02-11T00:41:08.982Z,16.10
2023-02-11T00:43:41.861Z,16.08
2023-02-11T00:46:14.578Z,13.60
2023-02-11T00:48:48.393Z,12.75
2023-02-11T00:51:20.862Z,12.88
2023-02-11T00:53:53.742Z,8.38
2023-02-11T00:56:26.464Z,9.63
2023-02-11T00:58:58.855Z,7.28
2023-02-11T01:01:31.319Z,5.20
2023-02-11T01:04:04.749Z,4.63
2023-02-11T01:06:37.132Z,2.55
2023-02-11T01:09:11.183Z,2.85
2023-02-11T01:11:43.674Z,5.00
2023-02-11T01:14:17.358Z,5.68
2023-02-11T01:16:49.725Z,7.18
2023-02-11T01:19:22.926Z,2.42
2023-02-11T01:21:55.288Z,4.85
2023-02-11T01:24:27.971Z,5.50
2023-02-11T01:27:00.419Z,4.70
2023-02-11T01:29:32.837Z,4.25
2023-02-11T01:32:05.294Z,3.17
2023-02-11T01:34:38.464Z,3.92
2023-02-11T01:37:11.098Z,3.50
2023-02-11T01:39:43.501Z,4.20
2023-02-11T01:42:20.853Z,4.45
2023-02-11T01:44:55.156Z,5.10
2023-02-11T01:47:27.575Z,5.55
2023-02-11T01:50:01.877Z,3.35
2023-02-11T01:52:39.035Z,2.67
2023-02-11T01:55:32.133Z,2.97
2023-02-11T01:58:05.425Z,2.47
2023-02-11T02:00:40.985Z,4.32
2023-02-11T02:03:18.824Z,4.25
2023-02-11T02:05:55.286Z,2.53
2023-02-11T02:08:31.501Z,2.80
2023-02-11T02:11:04.356Z,3.35
2023-02-11T02:13:36.974Z,3.08
2023-02-11T02:16:13.803Z,2.55
2023-02-11T02:18:56.005Z,2.83
2023-02-11T02:22:13.552Z,4.47
2023-02-11T02:25:00.284Z,3.15
2023-02-11T02:27:54.718Z,3.35
2023-02-11T02:30:49.319Z,3.38
2023-02-11T02:33:37.103Z,2.72
2023-02-11T02:36:18.037Z,6.28
2023-02-11T02:38:55.759Z,7.05
2023-02-11T02:41:31.089Z,9.95
2023-02-11T02:44:04.379Z,8.00
2023-02-11T02:46:37.330Z,7.80
2023-02-11T02:49:12.841Z,7.88
2023-02-11T02:52:23.423Z,5.85
2023-02-11T02:55:22.680Z,4.88
2023-02-11T02:58:08.938Z,3.78
2023-02-11T03:00:50.626Z,2.40
2023-02-11T03:03:32.556Z,4.35
2023-02-11T03:06:12.121Z,8.82
2023-02-11T03:08:49.112Z,3.70
2023-02-11T03:11:23.983Z,7.00
2023-02-11T03:13:58.124Z,5.90
2023-02-11T03:16:35.340Z,4.28
2023-02-11T03:19:12.304Z,3.53
2023-02-11T03:21:47.204Z,6.47
2023-02-11T03:24:25.709Z,4.55
2023-02-11T03:27:03.417Z,2.30
2023-02-11T03:29:43.442Z,2.80
2023-02-11T03:32:22.792Z,3.13
2023-02-11T03:34:59.880Z,1.80
2023-02-11T03:37:36.699Z,1.75
2023-02-11T03:40:13.388Z,2.40
2023-02-11T03:42:51.105Z,3.20
2023-02-11T03:45:25.348Z,2.50
2023-02-11T03:48:01.455Z,2.95
2023-02-11T03:50:35.939Z,1.88
2023-02-11T03:53:09.918Z,2.15
2023-02-11T03:55:43.846Z,2.60
2023-02-11T03:58:16.691Z,2.42
2023-02-11T04:00:49.114Z,2.40
2023-02-11T04:03:21.632Z,3.33
2023-02-11T04:05:54.133Z,3.22
2023-02-11T04:08:27.429Z,4.22
2023-02-11T04:10:59.752Z,3.47
2023-02-11T04:13:32.146Z,7.85
2023-02-11T04:16:04.811Z,3.22
2023-02-11T04:18:37.607Z,4.30
2023-02-11T04:21:09.960Z,3.92
2023-02-11T04:23:43.196Z,4.63
2023-02-11T04:26:15.501Z,5.40
2023-02-11T04:28:48.228Z,3.05
2023-02-11T04:31:20.701Z,5.68
2023-02-11T04:33:53.188Z,4.82
2023-02-11T04:36:25.542Z,5.55
2023-02-11T04:38:58.603Z,5.32
2023-02-11T04:41:31.068Z,3.75
2023-02-11T04:44:04.146Z,11.05
2023-02-11T04:46:36.614Z,11.63
2023-02-11T04:49:12.390Z,6.50
2023-02-11T04:51:46.999Z,4.70
2023-02-11T04:54:22.041Z,2.90
2023-02-11T04:56:54.460Z,7.88
2023-02-11T04:59:27.094Z,6.35
2023-02-11T05:01:59.496Z,6.35
2023-02-11T05:04:32.125Z,5.00
2023-02-11T05:07:04.635Z,4.60
2023-02-11T05:09:37.696Z,2.42
2023-02-11T05:12:10.118Z,4.25
2023-02-11T05:14:42.520Z,2.88
2023-02-11T05:17:14.945Z,3.95
2023-02-11T05:19:47.324Z,3.60
2023-02-11T05:22:21.240Z,3.78
2023-02-11T05:24:54.207Z,4.68
2023-02-11T05:27:26.627Z,6.07
2023-02-11T05:29:59.388Z,3.40
2023-02-11T05:32:32.373Z,3.78
2023-02-11T05:35:05.391Z,5.13
2023-02-11T05:37:38.321Z,2.65
2023-02-11T05:40:11.853Z,3.97
2023-02-11T05:42:44.359Z,2.88
2023-02-11T05:45:16.877Z,4.60
2023-02-11T05:47:49.442Z,6.25
2023-02-11T05:50:21.752Z,4.82
2023-02-11T05:52:57.682Z,5.72
2023-02-11T05:55:31.125Z,3.80
2023-02-11T05:58:03.969Z,3.55
2023-02-11T06:00:36.750Z,3.95
2023-02-11T06:03:09.189Z,3.72
2023-02-11T06:05:42.874Z,6.22
2023-02-11T06:08:16.039Z,3.95
2023-02-11T06:10:49.047Z,4.05
2023-02-11T06:13:21.491Z,2.75
2023-02-11T06:15:57.892Z,4.43
2023-02-11T06:18:31.517Z,4.22
2023-02-11T06:21:07.526Z,1.88
2023-02-11T06:23:40.054Z,3.65
2023-02-11T06:26:18.520Z,4.97
2023-02-11T06:28:51.112Z,4.13
2023-02-11T06:31:23.808Z,8.90
2023-02-11T06:33:56.287Z,9.65
2023-02-11T06:36:28.687Z,6.03
2023-02-11T06:39:01.956Z,6.25
2023-02-11T06:41:34.981Z,5.05
2023-02-11T06:44:07.464Z,6.68
2023-02-11T06:46:39.857Z,6.82
2023-02-11T06:49:12.782Z,11.30
2023-02-11T06:51:45.161Z,8.77
2023-02-11T06:54:17.771Z,5.85
2023-02-11T06:56:50.814Z,13.82
2023-02-11T06:59:23.340Z,12.05
2023-02-11T07:01:55.773Z,14.20
2023-02-11T07:04:28.429Z,11.40
2023-02-11T07:07:01.002Z,7.57
2023-02-11T07:09:33.697Z,4.35
2023-02-11T07:12:09.021Z,4.25
2023-02-11T07:14:41.502Z,5.30
2023-02-11T07:17:13.895Z,5.28
2023-02-11T07:19:46.327Z,16.73
2023-02-11T07:22:18.782Z,15.65
2023-02-11T07:24:51.206Z,18.27
2023-02-11T07:27:24.273Z,18.17
2023-02-11T07:29:56.788Z,15.43
2023-02-11T07:32:29.408Z,17.60
2023-02-11T07:35:01.970Z,12.40
2023-02-11T07:37:34.780Z,11.82
2023-02-11T07:40:08.065Z,8.52
2023-02-11T07:42:41.093Z,10.02
2023-02-11T07:45:13.536Z,8.15
2023-02-11T07:47:45.941Z,8.63
2023-02-11T07:50:18.477Z,5.82
2023-02-11T07:52:50.990Z,7.93
2023-02-11T07:55:23.389Z,4.85
2023-02-11T07:57:56.414Z,7.90
2023-02-11T08:00:28.855Z,6.75
2023-02-11T08:03:01.358Z,4.07
2023-02-11T08:05:33.871Z,3.17
2023-02-11T08:08:06.329Z,2.00
2023-02-11T08:10:38.694Z,3.35
2023-02-11T08:13:11.869Z,4.35
2023-02-11T08:15:45.199Z,4.43
2023-02-11T08:18:17.578Z,1.60
2023-02-11T08:20:50.241Z,2.80
2023-02-11T08:23:22.739Z,2.58
2023-02-11T08:25:55.094Z,4.45
2023-02-11T08:28:28.080Z,3.38
2023-02-11T08:31:05.644Z,4.13
2023-02-11T08:33:40.279Z,8.95
2023-02-11T08:36:15.149Z,2.97
2023-02-11T08:38:47.791Z,3.53
2023-02-11T08:41:20.212Z,6.60
2023-02-11T08:43:53.229Z,3.15
2023-02-11T08:46:26.320Z,4.75
2023-02-11T08:48:58.787Z,4.32
2023-02-11T08:51:31.729Z,6.63
2023-02-11T08:54:05.452Z,7.68
2023-02-11T08:56:41.013Z,4.85
2023-02-11T08:59:14.630Z,6.53
2023-02-11T09:01:47.335Z,4.82
2023-02-11T09:04:19.732Z,2.70
2023-02-11T09:06:52.153Z,3.80
2023-02-11T09:09:24.507Z,4.88
2023-02-11T09:11:56.966Z,4.88
2023-02-11T09:14:29.981Z,5.03
2023-02-11T09:17:02.488Z,7.68
2023-02-11T09:19:35.079Z,4.90
2023-02-11T09:22:07.780Z,5.35
2023-02-11T09:24:40.166Z,4.65
2023-02-11T09:27:12.649Z,4.47
2023-02-11T09:29:45.695Z,21.27
2023-02-11T09:32:18.179Z,5.82
2023-02-11T09:34:50.913Z,4.38
2023-02-11T09:37:23.355Z,4.65
2023-02-11T09:39:55.630Z,3.17
2023-02-11T09:42:42.816Z,4.18
2023-02-11T09:45:19.498Z,4.72
2023-02-11T09:47:56.562Z,4.68
2023-02-11T09:50:32.195Z,5.57
2023-02-11T09:53:11.463Z,5.18
2023-02-11T09:55:46.572Z,4.82
2023-02-11T09:58:25.465Z,6.25
2023-02-11T10:01:06.323Z,4.93
2023-02-11T10:03:54.707Z,4.40
2023-02-11T10:06:40.344Z,4.95
2023-02-11T10:09:36.814Z,3.65
2023-02-11T10:12:27.143Z,4.57
2023-02-11T10:15:17.455Z,3.15
2023-02-11T10:18:12.795Z,3.00
2023-02-11T10:20:57.268Z,4.82
2023-02-11T10:23:34.133Z,4.85
2023-02-11T10:26:12.990Z,3.28
2023-02-11T10:28:47.755Z,4.30
2023-02-11T10:31:24.923Z,3.88
2023-02-11T10:34:02.469Z,2.78
2023-02-11T10:36:37.301Z,4.05
2023-02-11T10:39:15.457Z,4.20
2023-02-11T10:41:52.911Z,5.18
2023-02-11T10:44:30.084Z,4.20
2023-02-11T10:47:09.073Z,3.90
2023-02-11T10:49:43.784Z,5.35
2023-02-11T10:52:21.373Z,4.78
2023-02-11T10:54:59.638Z,3.45
2023-02-11T10:57:36.031Z,6.07
2023-02-11T11:00:26.739Z,5.82
2023-02-11T11:03:02.321Z,5.30
2023-02-11T11:05:44.317Z,4.80
2023-02-11T11:08:17.867Z,4.88
2023-02-11T11:11:04.626Z,6.35
2023-02-11T11:13:38.436Z,5.82
2023-02-11T11:16:20.824Z,5.43
2023-02-11T11:19:14.261Z,4.72
2023-02-11T11:21:49.087Z,4.85
2023-02-11T11:24:26.827Z,7.68
2023-02-11T11:27:02.786Z,5.50
2023-02-11T11:29:39.206Z,5.03
2023-02-11T11:32:15.263Z,4.70
2023-02-11T11:34:51.100Z,5.05
2023-02-11T11:37:27.180Z,4.50
2023-02-11T11:40:03.229Z,4.32
2023-02-11T11:42:38.096Z,3.95
2023-02-11T11:45:24.042Z,4.05
2023-02-11T11:48:00.225Z,4.65
2023-02-11T11:50:36.631Z,6.28
2023-02-11T11:53:16.060Z,3.75
2023-02-11T11:55:58.626Z,4.70
2023-02-11T11:58:32.629Z,5.18
2023-02-11T12:01:23.492Z,4.00
2023-02-11T12:04:20.059Z,4.47
2023-02-11T12:07:02.109Z,4.20
2023-02-11T12:09:43.573Z,4.22
2023-02-11T12:12:26.597Z,3.72
2023-02-11T12:15:13.343Z,3.65
2023-02-11T12:17:57.044Z,4.03
2023-02-11T12:20:45.825Z,4.22
2023-02-11T12:23:35.861Z,2.92
2023-02-11T12:26:15.593Z,3.05
2023-02-11T12:31:46.326Z,2.83
2023-02-11T12:34:35.731Z,3.22
2023-02-11T12:37:18.917Z,4.50
2023-02-11T12:39:58.331Z,3.20
2023-02-11T12:43:07.108Z,3.88
2023-02-11T12:45:53.429Z,4.33
2023-02-11T12:48:39.507Z,3.50
2023-02-11T12:51:24.924Z,4.47
2023-02-11T12:54:15.667Z,2.67
2023-02-11T12:56:54.137Z,3.40
2023-02-11T12:59:38.116Z,4.28
2023-02-11T13:02:26.274Z,2.63
2023-02-11T13:05:04.140Z,6.85
2023-02-11T13:07:41.482Z,11.20
2023-02-11T13:10:25.241Z,4.50
2023-02-11T13:13:16.685Z,3.72
2023-02-11T13:15:54.613Z,4.18
2023-02-11T13:18:36.527Z,4.43
2023-02-11T13:21:26.262Z,3.58
2023-02-11T13:24:08.024Z,3.17
2023-02-11T13:26:45.654Z,3.88
2023-02-11T13:29:33.357Z,3.22
2023-02-11T13:32:09.128Z,2.78
2023-02-11T13:34:56.459Z,2.92
2023-02-11T13:37:35.940Z,3.10
2023-02-11T13:40:21.488Z,2.83
2023-02-11T13:42:56.175Z,2.17
2023-02-11T13:45:31.412Z,4.55
2023-02-11T13:48:07.553Z,4.55
2023-02-11T13:50:46.714Z,3.10
2023-02-11T13:53:20.058Z,2.47
2023-02-11T13:56:05.435Z,2.65
2023-02-11T13:58:48.255Z,4.22
2023-02-11T14:01:41.292Z,3.15
2023-02-11T14:04:43.753Z,2.63
2023-02-11T14:07:45.889Z,1.80
2023-02-11T14:10:54.686Z,4.68
2023-02-11T14:13:33.037Z,2.43
2023-02-11T14:16:08.971Z,2.35
2023-02-11T14:19:02.333Z,2.78
2023-02-11T14:21:37.858Z,1.75
2023-02-11T14:24:43.794Z,3.63
2023-02-11T14:27:23.309Z,2.45
2023-02-11T14:30:22.014Z,3.45
2023-02-11T14:33:11.265Z,3.15
2023-02-11T14:35:57.322Z,3.53
2023-02-11T14:38:45.612Z,3.00
2023-02-11T14:41:22.672Z,2.95
2023-02-11T14:43:58.259Z,1.95
2023-02-11T14:46:33.081Z,2.00
2023-02-11T14:49:05.980Z,2.10
2023-02-11T14:51:40.498Z,2.28
2023-02-11T14:54:21.944Z,2.47
2023-02-11T14:57:06.564Z,2.08
2023-02-11T14:59:39.764Z,2.08
2023-02-11T15:02:21.776Z,2.25
2023-02-11T15:04:54.850Z,1.63
2023-02-11T15:07:27.382Z,2.80
2023-02-11T15:10:00.469Z,2.83
2023-02-11T15:12:34.892Z,5.53
2023-02-11T15:15:13.926Z,8.60
2023-02-11T15:17:46.840Z,10.43
2023-02-11T15:20:24.469Z,15.75
2023-02-11T15:22:59.505Z,11.57
2023-02-11T15:25:34.294Z,6.40
2023-02-11T15:28:21.462Z,6.85
2023-02-11T15:30:59.840Z,7.53
2023-02-11T15:33:33.035Z,7.27
2023-02-11T15:36:06.518Z,11.32
2023-02-11T15:38:39.745Z,12.63
2023-02-11T15:41:35.294Z,14.00
2023-02-11T15:44:27.197Z,14.88
2023-02-11T15:47:00.152Z,13.20
2023-02-11T15:49:32.992Z,11.68
2023-02-11T15:52:08.014Z,10.20
2023-02-11T15:54:45.800Z,11.50
2023-02-11T15:57:21.366Z,14.13
2023-02-11T15:59:55.596Z,25.33
2023-02-11T16:02:31.986Z,17.70
2023-02-11T16:05:07.339Z,12.77
2023-02-11T16:07:43.030Z,14.05
2023-02-11T16:10:25.457Z,18.15
2023-02-11T16:13:16.705Z,23.80
2023-02-11T16:15:56.009Z,23.20
2023-02-11T16:18:38.344Z,26.90
2023-02-11T16:21:16.371Z,27.58
2023-02-11T16:23:51.419Z,23.15
2023-02-11T16:26:28.792Z,24.25
2023-02-11T16:29:12.511Z,22.85
2023-02-11T16:31:47.741Z,25.77
2023-02-11T16:34:22.456Z,25.73
2023-02-11T16:36:54.912Z,25.75
2023-02-11T16:39:27.273Z,22.35
2023-02-11T16:41:59.981Z,30.42
2023-02-11T16:44:34.181Z,37.03
2023-02-11T16:47:23.389Z,32.00
2023-02-11T16:49:56.520Z,25.23
2023-02-11T16:52:30.797Z,20.23
2023-02-11T16:55:04.456Z,28.65
2023-02-11T16:57:36.820Z,31.13
2023-02-11T17:00:15.343Z,29.15
2023-02-11T17:02:47.859Z,31.30
2023-02-11T17:05:22.608Z,34.40
2023-02-11T17:07:54.944Z,33.20
2023-02-11T17:10:28.134Z,33.75
2023-02-11T17:13:01.111Z,37.45
2023-02-11T17:15:34.409Z,47.90
2023-02-11T17:18:06.732Z,35.65
2023-02-11T17:20:39.243Z,37.65
2023-02-11T17:23:11.674Z,34.15
2023-02-11T17:25:44.077Z,34.35
2023-02-11T17:28:16.461Z,31.15
2023-02-11T17:30:49.621Z,31.45
2023-02-11T17:33:22.376Z,32.40
2023-02-11T17:35:55.070Z,40.75
2023-02-11T17:38:27.606Z,29.55
2023-02-11T17:41:01.420Z,82.68
2023-02-11T17:43:33.889Z,72.72
2023-02-11T17:46:08.204Z,36.28
2023-02-11T17:48:40.677Z,28.77
2023-02-11T17:51:24.642Z,16.17
2023-02-11T17:53:58.107Z,25.00
2023-02-11T17:56:32.767Z,6.15
2023-02-11T17:59:07.653Z,49.25
2023-02-11T18:01:42.290Z,32.42
2023-02-11T18:04:17.049Z,29.70
2023-02-11T18:06:49.601Z,29.88
2023-02-11T18:09:21.960Z,23.63
2023-02-11T18:11:54.632Z,19.75
2023-02-11T18:14:26.958Z,13.88
2023-02-11T18:17:00.143Z,9.60
2023-02-11T18:19:35.194Z,9.57
2023-02-11T18:22:09.042Z,21.20
2023-02-11T18:24:41.403Z,22.67
2023-02-11T18:27:13.966Z,19.40
2023-02-11T18:29:46.348Z,21.25
2023-02-11T18:32:19.515Z,19.55
2023-02-11T18:34:51.868Z,21.35
2023-02-11T18:37:24.725Z,20.08
2023-02-11T18:39:57.024Z,17.80
2023-02-11T18:42:29.403Z,16.65
2023-02-11T18:45:02.169Z,24.33
2023-02-11T18:47:36.940Z,22.02
2023-02-11T18:50:12.987Z,16.02
2023-02-11T18:52:45.429Z,15.07
2023-02-11T18:55:22.544Z,15.75
2023-02-11T18:57:55.900Z,22.48
2023-02-11T19:00:28.260Z,22.98
2023-02-11T19:03:01.440Z,24.30
2023-02-11T19:05:40.592Z,21.00
2023-02-11T19:08:13.999Z,23.30
2023-02-11T19:10:47.224Z,23.10
2023-02-11T19:13:19.705Z,23.92
2023-02-11T19:15:52.329Z,26.55
2023-02-11T19:18:25.633Z,20.25
2023-02-11T19:20:58.022Z,20.85
2023-02-11T19:23:30.411Z,20.95
2023-02-11T19:26:03.918Z,17.63
2023-02-11T19:28:36.773Z,16.25
2023-02-11T19:31:09.494Z,21.00
2023-02-11T19:33:42.856Z,14.75
2023-02-11T19:36:16.564Z,19.73
2023-02-11T19:38:48.965Z,18.67
2023-02-11T19:41:22.472Z,9.50
2023-02-11T19:43:56.138Z,13.73
2023-02-11T19:46:30.948Z,13.85
2023-02-11T19:49:04.868Z,13.52
2023-02-11T19:51:38.574Z,17.90
2023-02-11T19:54:11.029Z,15.32
2023-02-11T19:56:44.108Z,16.90
2023-02-11T19:59:16.715Z,14.80
2023-02-11T20:01:49.378Z,17.58
2023-02-11T20:04:24.397Z,19.23
2023-02-11T20:06:56.930Z,16.92
2023-02-11T20:09:30.404Z,16.73
2023-02-11T20:12:03.119Z,20.08
2023-02-11T20:14:35.714Z,15.77
2023-02-11T20:17:08.109Z,13.70
2023-02-11T20:19:41.398Z,17.17
2023-02-11T20:22:13.813Z,17.63
2023-02-11T20:24:46.271Z,20.60
2023-02-11T20:27:20.119Z,17.40
2023-02-11T20:29:52.777Z,19.38
2023-02-11T20:32:25.206Z,22.48
2023-02-11T20:34:58.714Z,29.40
2023-02-11T20:37:31.102Z,18.02
2023-02-11T20:40:03.805Z,20.77
2023-02-11T20:42:36.222Z,17.15
2023-02-11T20:45:09.134Z,10.00
2023-02-11T20:47:41.825Z,13.98
2023-02-11T20:50:15.134Z,9.55
2023-02-11T20:52:47.960Z,19.85
2023-02-11T20:55:20.638Z,25.73
2023-02-11T20:57:53.159Z,21.23
2023-02-11T21:00:25.625Z,20.80
2023-02-11T21:02:57.988Z,18.38
2023-02-11T21:05:31.195Z,23.80
2023-02-11T21:08:04.259Z,18.10
2023-02-11T21:10:36.694Z,20.70
2023-02-11T21:13:09.142Z,22.00
2023-02-11T21:15:41.649Z,13.38
2023-02-11T21:18:14.184Z,16.95
2023-02-11T21:20:47.603Z,16.38
2023-02-11T21:23:20.211Z,16.40
2023-02-11T21:25:53.571Z,15.98
2023-02-11T21:28:26.383Z,11.02
2023-02-11T21:30:59.035Z,13.52
2023-02-11T21:33:32.949Z,9.65
2023-02-11T21:36:07.548Z,9.75
2023-02-11T21:38:40.155Z,13.10
2023-02-11T21:41:12.871Z,8.60
2023-02-11T21:43:45.736Z,10.98
2023-02-11T21:46:19.544Z,14.98
2023-02-11T21:48:52.169Z,18.50
2023-02-11T21:51:26.444Z,6.90
2023-02-11T21:54:01.538Z,6.57
2023-02-11T21:56:34.851Z,7.07
2023-02-11T21:59:07.198Z,11.60
2023-02-11T22:01:39.945Z,11.20
2023-02-11T22:04:12.473Z,13.13
2023-02-11T22:06:45.670Z,15.57
2023-02-11T22:09:18.044Z,10.23
2023-02-11T22:11:50.478Z,9.30
2023-02-11T22:14:22.896Z,8.00
2023-02-11T22:16:55.267Z,14.18
2023-02-11T22:19:27.792Z,12.40
2023-02-11T22:22:00.879Z,8.55
2023-02-11T22:24:35.208Z,9.10
2023-02-11T22:27:07.629Z,13.55
2023-02-11T22:29:40.020Z,14.38
2023-02-11T22:32:12.604Z,14.77
2023-02-11T22:34:45.143Z,12.18
2023-02-11T22:37:18.195Z,11.50
2023-02-11T22:39:50.613Z,10.90
2023-02-11T22:42:22.995Z,12.18
2023-02-11T22:44:55.358Z,14.82
2023-02-11T22:47:27.745Z,9.20
2023-02-11T22:50:00.175Z,10.18
2023-02-11T22:52:35.271Z,11.63
2023-02-11T22:55:07.909Z,14.00
2023-02-11T22:57:40.255Z,11.82
2023-02-11T23:00:13.980Z,11.40
2023-02-11T23:02:46.611Z,13.63
2023-02-11T23:05:19.020Z,17.02
2023-02-11T23:07:52.152Z,12.43
2023-02-11T23:10:24.619Z,9.85
2023-02-11T23:12:57.011Z,8.52
2023-02-11T23:15:29.451Z,12.90
2023-02-11T23:18:01.963Z,13.38
2023-02-11T23:20:35.050Z,13.02
2023-02-11T23:23:08.353Z,12.23
2023-02-11T23:25:44.320Z,6.97
2023-02-11T23:28:16.900Z,14.40
2023-02-11T23:30:49.286Z,11.38
2023-02-11T23:33:22.599Z,15.02
2023-02-11T23:35:55.200Z,11.30
2023-02-11T23:38:28.514Z,6.95
2023-02-11T23:41:01.016Z,7.50
2023-02-11T23:43:33.581Z,9.95
2023-02-11T23:46:06.257Z,2.97
2023-02-11T23:48:39.742Z,1.85
2023-02-11T23:51:12.248Z,3.67
2023-02-11T23:53:45.955Z,4.57
2023-02-11T23:56:20.575Z,5.75
2023-02-11T23:58:54.928Z,4.20
